If you wish to contribute or participate in the discussions about articles you are invited to join SKYbrary as a registered user

 Actions

Figari Sud-Corse Airport

From SKYbrary Wiki

LFKF /
Revision as of 20:15, 16 February 2015 by Timo.Kouwenhoven (talk | contribs) (LF Airports CSV import)
(diff) ← Older revision | Latest revision (diff) | Newer revision → (diff)
Airport
ICAO: LFKF – IATA: FSC
Summary
Name Figari Sud-Corse Airport
Region Europe
Territory France FR.gif
Location , Corse
Serving Figari
Elevation 26.518 m
87 ft
87 ft26.518 m
Type medium airport
Coordinates 41° 30' 2.01" N, 9° 5' 52.00" E
Runways
Designator Length Width Surface ROPS
5/23 2480 m8,136.483 ft
45 m147.638 ft
ASP yes/yes


METAR
Observation LFKF 260200Z AUTO 00000KT 7000 // NSC 20/19 Q1016
Station Figari
Date/Time 26 August 2019 02:00:00
Wind direction
Wind speed 00 kts
Lowest cloud amount nil significant cloud
Temperature 20°C
Dew point 19°C
Humidity 93%
QNH 1016 hPa
Weather condition n/a